Bezoek onze andere website:

Template documentation
and downloads

And another site


Weather Underground Historische gegevens

Dagelijkse Samenvatting november 19, 2018 Eenheden:  Metrisch    Engels   Beide
« Vorige Dag
Volgende Dag »
Dagelijkse Wekelijkse Maandelijkse Jaarlijkse Aangepaste
  Huidig: Hoog: Laag: Gemiddeld:
Temperatuur: 5.1 °C -17.8 °C 3.6 °C 3.9 °C
Dauwpunt: 0.7 °C -17.8 °C -0.1 °C -0.1 °C
Vochtigheid: 73 % Humidity % 73 % 73 %
Wind snelheid: 9.7 km/h 0 km/h 0 km/h 6.8 km/h
Windvlaag: 17.7 km/h 0 km/h - -
Wind:NE - - NE
Luchtdruk: 1023.9 hPa 0 hPa 1023.9 hPa -
Neerslag: 0 mm      
Historical Graphs
 
 
Tabel voor november 19, 2018
Tijd Temperatuur Dauwpunt Luchtdruk Wind Wind snelheid Windvlaag Vochtigheid Regenval per uur
-17.8 °C -17.8 °C 0 hPa Calm     Humidity % 0 mm
00:02 4.4 °C 0.2 °C 1026.6 hPa ENE 6.4 km/h 16.1 km/h 74 % 0 mm
00:12 4.4 °C 0.2 °C 1026.6 hPa NE 9.7 km/h 14.5 km/h 74 % 0 mm
00:22 4.7 °C 0.3 °C 1026.6 hPa ENE 14.3 km/h 14.5 km/h 73 % 0 mm
00:32 4.8 °C 0.4 °C 1026.6 hPa NE 9.7 km/h 11.3 km/h 73 % 0 mm
00:42 4.7 °C 0.3 °C 1026.6 hPa NNE 4.7 km/h 14.5 km/h 73 % 0 mm
00:52 4.6 °C 0.2 °C 1026.3 hPa ENE 6.4 km/h 8 km/h 73 % 0 mm
01:02 4.4 °C 0.2 °C 1026.3 hPa NE 4.7 km/h 9.7 km/h 74 % 0 mm
01:12 4.4 °C 0.2 °C 1026.3 hPa East 7.9 km/h 11.3 km/h 74 % 0 mm
01:22 4.3 °C 0.1 °C 1026.3 hPa NE 4.7 km/h 8 km/h 74 % 0 mm
01:32 4.3 °C 0.3 °C 1026 hPa NE 4.7 km/h 6.4 km/h 75 % 0 mm
01:42 4.2 °C 0 °C 1026 hPa NNE 1.4 km/h 8 km/h 74 % 0 mm
01:52 3.9 °C -0.1 °C 1026 hPa NE 3.2 km/h 8 km/h 75 % 0 mm
02:02 3.7 °C -0.1 °C 1025.6 hPa Calm   4.8 km/h 76 % 0 mm
02:12 3.6 °C -0.1 °C 1025.6 hPa NNE 7.9 km/h 9.7 km/h 77 % 0 mm
02:22 3.8 °C 0.1 °C 1025.6 hPa NE 4.7 km/h 6.4 km/h 77 % 0 mm
02:32 3.9 °C 0.1 °C 1025.3 hPa NE 4.7 km/h 6.4 km/h 76 % 0 mm
02:52 4.2 °C 0.3 °C 1025.3 hPa NNE 6.4 km/h 16.1 km/h 76 % 0 mm
03:02 4.4 °C 0.4 °C 1025.3 hPa NE 3.2 km/h 16.1 km/h 75 % 0 mm
03:12 4.5 °C 0.6 °C 1025.3 hPa NNE 17.7 km/h 17.7 km/h 76 % 0 mm
03:22 4.5 °C 0.6 °C 1024.9 hPa ENE 4.7 km/h 9.7 km/h 76 % 0 mm
03:32 4.4 °C 0.5 °C 1024.9 hPa NE 7.9 km/h 11.3 km/h 76 % 0 mm
03:42 4.4 °C 0.5 °C 1024.9 hPa ENE 9.7 km/h 11.3 km/h 76 % 0 mm
03:52 4.4 °C 0.5 °C 1024.9 hPa NNE 4.7 km/h 6.4 km/h 76 % 0 mm
04:02 4.4 °C 0.7 °C 1024.9 hPa ENE 4.7 km/h 8 km/h 77 % 0 mm
04:12 4.7 °C 0.8 °C 1024.9 hPa East 3.2 km/h 16.1 km/h 76 % 0 mm
04:22 4.8 °C 0.9 °C 1024.6 hPa North 9.7 km/h 11.3 km/h 76 % 0 mm
04:32 4.8 °C 0.7 °C 1024.6 hPa ENE 6.4 km/h 16.1 km/h 75 % 0 mm
04:42 4.9 °C 0.8 °C 1024.6 hPa NE 9.7 km/h 19.3 km/h 75 % 0 mm
04:52 4.9 °C 0.8 °C 1024.3 hPa NE 14.3 km/h 17.7 km/h 75 % 0 mm
05:02 4.9 °C 0.8 °C 1024.3 hPa NNE 6.4 km/h 17.7 km/h 75 % 0 mm
05:12 4.9 °C 0.7 °C 1024.3 hPa North 7.9 km/h 17.7 km/h 74 % 0 mm
05:22 5 °C 0.8 °C 1024.3 hPa NNE 7.9 km/h 12.9 km/h 74 % 0 mm
05:32 5 °C 0.8 °C 1023.9 hPa NE 11.1 km/h 22.5 km/h 74 % 0 mm
05:43 5.1 °C 0.8 °C 1023.9 hPa ENE 6.4 km/h 9.7 km/h 74 % 0 mm
05:53 5.1 °C 0.7 °C 1023.9 hPa NE 6.4 km/h 20.9 km/h 73 % 0 mm
06:03 5.1 °C 0.7 °C 1023.9 hPa NE 9.7 km/h 17.7 km/h 73 % 0 mm
Weerstation Vierhouten
Gegevens verzameld door Weather Underground - 4 mb

Script ontwikkeld door  Jim McMurry - jmcmurry@mwt.net Aangepast voor de template door  Wim van der Kuil - Leuven-Template.eu

U vindt ons ook hier:

Het Weer Aktueel

WeatherCloud

Weather Underground